FDB161 OEDF-OEJN
Flight info
| Callsign | FDB161 |
|---|---|
| Flight time | 1h 42m |
| Altitude | 34000 |
| Route | EMUSA Q212 GETOT J852 KSA G782 RGB M309 VEMEM |
| Aircraft | B38M/M-SDE1FGHILORVWXY/HB1 |
Departure
| Time | 2026-04-23 20:31 |
|---|---|
| Airport | King Fahd International Airport (OEDF) |
Arrival
| Time | 2026-04-23 22:14 |
|---|---|
| Airport | King Abdulaziz International Airport (OEJN) |
| Time | Latitude | Longitude | Altitude | Speed | Heading |
|---|---|---|---|---|---|
| 2026-04-23 20:02 | 26.47147 | 49.79355 | 84 ft | 0 kts | 63° |
| 2026-04-23 20:14 | 26.47140 | 49.79339 | 87 ft | 4 kts | 59° |
| 2026-04-23 20:15 | 26.47124 | 49.79315 | 89 ft | 4 kts | 45° |
| 2026-04-23 20:15 | 26.47103 | 49.79298 | 88 ft | 4 kts | 16° |
| 2026-04-23 20:15 | 26.47083 | 49.79297 | 88 ft | 1 kts | 336° |
| 2026-04-23 20:15 | 26.47079 | 49.79299 | 86 ft | 0 kts | 336° |
| 2026-04-23 20:19 | 26.47086 | 49.79295 | 86 ft | 4 kts | 334° |
| 2026-04-23 20:19 | 26.47118 | 49.79277 | 84 ft | 7 kts | 333° |
| 2026-04-23 20:19 | 26.47170 | 49.79249 | 86 ft | 9 kts | 334° |
| 2026-04-23 20:20 | 26.47235 | 49.79213 | 84 ft | 11 kts | 334° |
| 2026-04-23 20:20 | 26.47311 | 49.79172 | 88 ft | 13 kts | 336° |
| 2026-04-23 20:20 | 26.47390 | 49.79143 | 87 ft | 9 kts | 344° |
| 2026-04-23 20:20 | 26.47457 | 49.79122 | 84 ft | 11 kts | 343° |
| 2026-04-23 20:21 | 26.47526 | 49.79139 | 88 ft | 11 kts | 55° |
| 2026-04-23 20:21 | 26.47550 | 49.79224 | 87 ft | 12 kts | 78° |
| 2026-04-23 20:21 | 26.47574 | 49.79305 | 89 ft | 10 kts | 75° |
| 2026-04-23 20:21 | 26.47591 | 49.79376 | 91 ft | 9 kts | 75° |
| 2026-04-23 20:22 | 26.47611 | 49.79458 | 94 ft | 12 kts | 75° |
| 2026-04-23 20:22 | 26.47638 | 49.79566 | 94 ft | 17 kts | 73° |
| 2026-04-23 20:22 | 26.47672 | 49.79698 | 93 ft | 18 kts | 74° |
| 2026-04-23 20:22 | 26.47706 | 49.79834 | 93 ft | 19 kts | 74° |
| 2026-04-23 20:23 | 26.47742 | 49.79982 | 89 ft | 21 kts | 75° |
| 2026-04-23 20:23 | 26.47784 | 49.80153 | 87 ft | 23 kts | 75° |
| 2026-04-23 20:23 | 26.47826 | 49.80327 | 84 ft | 23 kts | 75° |
| 2026-04-23 20:23 | 26.47869 | 49.80500 | 86 ft | 23 kts | 74° |
| 2026-04-23 20:24 | 26.47913 | 49.80670 | 87 ft | 22 kts | 74° |
| 2026-04-23 20:24 | 26.47947 | 49.80819 | 88 ft | 14 kts | 87° |
| 2026-04-23 20:24 | 26.47889 | 49.80882 | 89 ft | 13 kts | 160° |
| 2026-04-23 20:24 | 26.47800 | 49.80908 | 89 ft | 14 kts | 165° |
| 2026-04-23 20:25 | 26.47702 | 49.80938 | 88 ft | 15 kts | 164° |
| 2026-04-23 20:25 | 26.47594 | 49.80972 | 88 ft | 17 kts | 164° |
| 2026-04-23 20:25 | 26.47476 | 49.81008 | 86 ft | 18 kts | 164° |
| 2026-04-23 20:25 | 26.47453 | 49.81016 | 84 ft | 18 kts | 164° |
| 2026-04-23 20:26 | 26.47392 | 49.81034 | 84 ft | 19 kts | 164° |
| 2026-04-23 20:26 | 26.47261 | 49.81075 | 86 ft | 20 kts | 164° |
| 2026-04-23 20:26 | 26.47125 | 49.81117 | 87 ft | 21 kts | 164° |
| 2026-04-23 20:27 | 26.46984 | 49.81161 | 89 ft | 21 kts | 164° |
| 2026-04-23 20:27 | 26.46839 | 49.81205 | 88 ft | 22 kts | 164° |
| 2026-04-23 20:27 | 26.46689 | 49.81252 | 88 ft | 22 kts | 164° |
| 2026-04-23 20:27 | 26.46582 | 49.81285 | 89 ft | 23 kts | 164° |
| 2026-04-23 20:28 | 26.46426 | 49.81333 | 89 ft | 24 kts | 164° |
| 2026-04-23 20:28 | 26.46266 | 49.81382 | 86 ft | 24 kts | 164° |
| 2026-04-23 20:28 | 26.46101 | 49.81433 | 87 ft | 25 kts | 164° |
| 2026-04-23 20:28 | 26.45933 | 49.81486 | 89 ft | 25 kts | 164° |
| 2026-04-23 20:29 | 26.45765 | 49.81538 | 86 ft | 26 kts | 164° |
| 2026-04-23 20:29 | 26.45595 | 49.81590 | 89 ft | 25 kts | 164° |
| 2026-04-23 20:29 | 26.45470 | 49.81619 | 88 ft | 14 kts | 189° |
| 2026-04-23 20:29 | 26.45421 | 49.81542 | 85 ft | 13 kts | 259° |
| 2026-04-23 20:30 | 26.45416 | 49.81450 | 85 ft | 11 kts | 300° |
| 2026-04-23 20:30 | 26.46050 | 49.81239 | 89 ft | 107 kts | 345° |
| 2026-04-23 20:30 | 26.46958 | 49.80957 | 90 ft | 162 kts | 344° |
| 2026-04-23 20:31 | 26.48102 | 49.80576 | 587 ft | 175 kts | 342° |
| 2026-04-23 20:31 | 26.49262 | 49.80171 | 1371 ft | 178 kts | 342° |
| 2026-04-23 20:31 | 26.50494 | 49.79776 | 1954 ft | 190 kts | 345° |
| 2026-04-23 20:31 | 26.51804 | 49.79430 | 2485 ft | 197 kts | 346° |
| 2026-04-23 20:32 | 26.53155 | 49.79129 | 3179 ft | 196 kts | 348° |
| 2026-04-23 20:32 | 26.54501 | 49.78812 | 3780 ft | 202 kts | 348° |
| 2026-04-23 20:32 | 26.55936 | 49.78446 | 4057 ft | 223 kts | 346° |
| 2026-04-23 20:32 | 26.57506 | 49.77967 | 4369 ft | 244 kts | 342° |
| 2026-04-23 20:33 | 26.59053 | 49.77045 | 4782 ft | 262 kts | 319° |
| 2026-04-23 20:33 | 26.60067 | 49.75299 | 5224 ft | 281 kts | 287° |
| 2026-04-23 20:33 | 26.60068 | 49.73096 | 5788 ft | 294 kts | 255° |
| 2026-04-23 20:33 | 26.59183 | 49.71016 | 6541 ft | 296 kts | 242° |
| 2026-04-23 20:34 | 26.58287 | 49.68928 | 7207 ft | 303 kts | 249° |
| 2026-04-23 20:34 | 26.57741 | 49.66602 | 7600 ft | 317 kts | 264° |
| 2026-04-23 20:34 | 26.57880 | 49.64154 | 8102 ft | 312 kts | 283° |
| 2026-04-23 20:34 | 26.58626 | 49.61874 | 8400 ft | 319 kts | 295° |
| 2026-04-23 20:35 | 26.59506 | 49.59651 | 9343 ft | 311 kts | 292° |
| 2026-04-23 20:35 | 26.60340 | 49.57423 | 10110 ft | 314 kts | 291° |
| 2026-04-23 20:35 | 26.60896 | 49.55058 | 10600 ft | 319 kts | 272° |
| 2026-04-23 20:35 | 26.60601 | 49.52584 | 10949 ft | 328 kts | 247° |
| 2026-04-23 20:36 | 26.59455 | 49.50348 | 11338 ft | 337 kts | 238° |
| 2026-04-23 20:36 | 26.58232 | 49.48051 | 11657 ft | 350 kts | 240° |
| 2026-04-23 20:36 | 26.57028 | 49.45646 | 12090 ft | 358 kts | 240° |
| 2026-04-23 20:36 | 26.55808 | 49.43217 | 12744 ft | 358 kts | 240° |
| 2026-04-23 20:37 | 26.54560 | 49.40808 | 13394 ft | 359 kts | 239° |
| 2026-04-23 20:37 | 26.53291 | 49.38406 | 13988 ft | 359 kts | 239° |
| 2026-04-23 20:37 | 26.52018 | 49.35995 | 14527 ft | 362 kts | 239° |
| 2026-04-23 20:37 | 26.50735 | 49.33552 | 15095 ft | 366 kts | 239° |
| 2026-04-23 20:38 | 26.49449 | 49.31095 | 15674 ft | 367 kts | 239° |
| 2026-04-23 20:38 | 26.48155 | 49.28624 | 16218 ft | 369 kts | 239° |
| 2026-04-23 20:38 | 26.46855 | 49.26146 | 16747 ft | 371 kts | 239° |
| 2026-04-23 20:38 | 26.45545 | 49.23649 | 17263 ft | 374 kts | 239° |
| 2026-04-23 20:39 | 26.44247 | 49.21172 | 17789 ft | 376 kts | 239° |
| 2026-04-23 20:39 | 26.42921 | 49.18645 | 18282 ft | 378 kts | 239° |
| 2026-04-23 20:39 | 26.41588 | 49.16107 | 18770 ft | 381 kts | 239° |
| 2026-04-23 20:39 | 26.40242 | 49.13549 | 19234 ft | 383 kts | 239° |
| 2026-04-23 20:40 | 26.38888 | 49.10978 | 19699 ft | 385 kts | 240° |
| 2026-04-23 20:40 | 26.37528 | 49.08395 | 20133 ft | 388 kts | 240° |
| 2026-04-23 20:40 | 26.36157 | 49.05793 | 20559 ft | 391 kts | 240° |
| 2026-04-23 20:40 | 26.34776 | 49.03173 | 20985 ft | 393 kts | 240° |
| 2026-04-23 20:41 | 26.33389 | 49.00543 | 21393 ft | 395 kts | 240° |
| 2026-04-23 20:41 | 26.31995 | 48.97900 | 21781 ft | 397 kts | 240° |
| 2026-04-23 20:41 | 26.30590 | 48.95238 | 22158 ft | 399 kts | 240° |
| 2026-04-23 20:41 | 26.29180 | 48.92567 | 22521 ft | 401 kts | 240° |
| 2026-04-23 20:42 | 26.27759 | 48.89879 | 22876 ft | 403 kts | 240° |
| 2026-04-23 20:42 | 26.26333 | 48.87184 | 23194 ft | 405 kts | 240° |
| 2026-04-23 20:42 | 26.24897 | 48.84471 | 23510 ft | 407 kts | 240° |
| 2026-04-23 20:42 | 26.23453 | 48.81746 | 23821 ft | 409 kts | 240° |
| 2026-04-23 20:43 | 26.22004 | 48.79012 | 24124 ft | 411 kts | 240° |
| 2026-04-23 20:43 | 26.20551 | 48.76269 | 24411 ft | 412 kts | 240° |
| 2026-04-23 20:43 | 26.19174 | 48.73458 | 24692 ft | 413 kts | 247° |
| 2026-04-23 20:43 | 26.18233 | 48.70443 | 24969 ft | 413 kts | 256° |
| 2026-04-23 20:44 | 26.17728 | 48.67289 | 25250 ft | 414 kts | 261° |
| 2026-04-23 20:44 | 26.17316 | 48.64147 | 25489 ft | 416 kts | 261° |
| 2026-04-23 20:44 | 26.16919 | 48.60948 | 25720 ft | 418 kts | 262° |
| 2026-04-23 20:44 | 26.16524 | 48.57737 | 25968 ft | 419 kts | 262° |
| 2026-04-23 20:45 | 26.16117 | 48.54522 | 26198 ft | 420 kts | 261° |
| 2026-04-23 20:45 | 26.15698 | 48.51301 | 26418 ft | 421 kts | 261° |
| 2026-04-23 20:45 | 26.15275 | 48.48074 | 26632 ft | 422 kts | 262° |
| 2026-04-23 20:45 | 26.14854 | 48.44832 | 26833 ft | 423 kts | 262° |
| 2026-04-23 20:46 | 26.14436 | 48.41589 | 27021 ft | 424 kts | 262° |
| 2026-04-23 20:46 | 26.14016 | 48.38336 | 27200 ft | 425 kts | 262° |
| 2026-04-23 20:46 | 26.13593 | 48.35074 | 27399 ft | 426 kts | 262° |
| 2026-04-23 20:46 | 26.13167 | 48.31803 | 27585 ft | 427 kts | 262° |
| 2026-04-23 20:47 | 26.12738 | 48.28523 | 27760 ft | 429 kts | 262° |
| 2026-04-23 20:47 | 26.12308 | 48.25237 | 27930 ft | 430 kts | 262° |
| 2026-04-23 20:47 | 26.11876 | 48.21944 | 28099 ft | 431 kts | 261° |
| 2026-04-23 20:47 | 26.11145 | 48.18698 | 28250 ft | 433 kts | 251° |
| 2026-04-23 20:48 | 26.09839 | 48.15664 | 28446 ft | 437 kts | 240° |
| 2026-04-23 20:48 | 26.08031 | 48.12937 | 28633 ft | 440 kts | 234° |
| 2026-04-23 20:48 | 26.06122 | 48.10328 | 28772 ft | 442 kts | 233° |
| 2026-04-23 20:48 | 26.04145 | 48.07702 | 28935 ft | 444 kts | 233° |
| 2026-04-23 20:49 | 26.02156 | 48.05073 | 29113 ft | 445 kts | 233° |
| 2026-04-23 20:49 | 26.00180 | 48.02432 | 29342 ft | 444 kts | 233° |
| 2026-04-23 20:49 | 25.98221 | 47.99784 | 29586 ft | 443 kts | 234° |
| 2026-04-23 20:49 | 25.96266 | 47.97136 | 29813 ft | 442 kts | 234° |
| 2026-04-23 20:50 | 25.94307 | 47.94495 | 30045 ft | 442 kts | 234° |
| 2026-04-23 20:50 | 25.92349 | 47.91869 | 30310 ft | 441 kts | 234° |
| 2026-04-23 20:50 | 25.90391 | 47.89249 | 30591 ft | 440 kts | 234° |
| 2026-04-23 20:50 | 25.88437 | 47.86634 | 30889 ft | 438 kts | 234° |
| 2026-04-23 20:51 | 25.86498 | 47.84033 | 31190 ft | 436 kts | 234° |
| 2026-04-23 20:51 | 25.84565 | 47.81438 | 31489 ft | 435 kts | 234° |
| 2026-04-23 20:51 | 25.82632 | 47.78847 | 31809 ft | 433 kts | 234° |
| 2026-04-23 20:51 | 25.80714 | 47.76279 | 32134 ft | 431 kts | 234° |
| 2026-04-23 20:52 | 25.78824 | 47.73752 | 32449 ft | 429 kts | 234° |
| 2026-04-23 20:52 | 25.76895 | 47.71175 | 32787 ft | 427 kts | 234° |
| 2026-04-23 20:52 | 25.75002 | 47.68645 | 33113 ft | 426 kts | 234° |
| 2026-04-23 20:52 | 25.73116 | 47.66125 | 33437 ft | 424 kts | 234° |
| 2026-04-23 20:53 | 25.71235 | 47.63613 | 33779 ft | 422 kts | 234° |
| 2026-04-23 20:53 | 25.69384 | 47.61143 | 34032 ft | 422 kts | 234° |
| 2026-04-23 20:53 | 25.65644 | 47.56142 | 34037 ft | 418 kts | 234° |
| 2026-04-23 20:54 | 25.61942 | 47.51195 | 34061 ft | 417 kts | 234° |
| 2026-04-23 20:54 | 25.58233 | 47.46255 | 34069 ft | 417 kts | 234° |
| 2026-04-23 20:55 | 25.54513 | 47.41319 | 34066 ft | 417 kts | 234° |
| 2026-04-23 20:55 | 25.50794 | 47.36378 | 34066 ft | 417 kts | 234° |
| 2026-04-23 20:56 | 25.47065 | 47.31433 | 34067 ft | 419 kts | 234° |
| 2026-04-23 20:56 | 25.43332 | 47.26489 | 34077 ft | 418 kts | 233° |
| 2026-04-23 20:57 | 25.39590 | 47.21537 | 34078 ft | 419 kts | 233° |
| 2026-04-23 20:57 | 25.35846 | 47.16588 | 34075 ft | 420 kts | 233° |
| 2026-04-23 20:58 | 25.32092 | 47.11630 | 34080 ft | 420 kts | 233° |
| 2026-04-23 20:58 | 25.28335 | 47.06674 | 34076 ft | 421 kts | 233° |
| 2026-04-23 20:59 | 25.24572 | 47.01717 | 34081 ft | 421 kts | 233° |
| 2026-04-23 20:59 | 25.20831 | 46.96791 | 34079 ft | 420 kts | 233° |
| 2026-04-23 21:00 | 25.17060 | 46.91835 | 34088 ft | 422 kts | 233° |
| 2026-04-23 21:00 | 25.13281 | 46.86873 | 34086 ft | 422 kts | 233° |
| 2026-04-23 21:01 | 25.09504 | 46.81914 | 34089 ft | 422 kts | 233° |
| 2026-04-23 21:01 | 25.05716 | 46.76949 | 34090 ft | 423 kts | 233° |
| 2026-04-23 21:02 | 25.01925 | 46.71989 | 34093 ft | 422 kts | 233° |
| 2026-04-23 21:02 | 24.98773 | 46.67864 | 34090 ft | 423 kts | 234° |
| 2026-04-23 21:03 | 24.95487 | 46.62531 | 34097 ft | 420 kts | 240° |
| 2026-04-23 21:03 | 24.92333 | 46.57105 | 34092 ft | 420 kts | 240° |
| 2026-04-23 21:04 | 24.89181 | 46.51677 | 34084 ft | 420 kts | 240° |
| 2026-04-23 21:04 | 24.86018 | 46.46263 | 34090 ft | 421 kts | 240° |
| 2026-04-23 21:05 | 24.82849 | 46.40834 | 34097 ft | 421 kts | 240° |
| 2026-04-23 21:05 | 24.79703 | 46.35452 | 34083 ft | 421 kts | 240° |
| 2026-04-23 21:06 | 24.76528 | 46.30028 | 34088 ft | 421 kts | 240° |
| 2026-04-23 21:06 | 24.73346 | 46.24594 | 34086 ft | 422 kts | 240° |
| 2026-04-23 21:07 | 24.70171 | 46.19182 | 34078 ft | 421 kts | 240° |
| 2026-04-23 21:07 | 24.66995 | 46.13772 | 34071 ft | 421 kts | 240° |
| 2026-04-23 21:08 | 24.63816 | 46.08363 | 34040 ft | 421 kts | 240° |
| 2026-04-23 21:08 | 24.60636 | 46.02960 | 34027 ft | 421 kts | 240° |
| 2026-04-23 21:09 | 24.57448 | 45.97550 | 34033 ft | 422 kts | 240° |
| 2026-04-23 21:09 | 24.54260 | 45.92140 | 34038 ft | 421 kts | 240° |
| 2026-04-23 21:10 | 24.51090 | 45.86776 | 34030 ft | 422 kts | 240° |
| 2026-04-23 21:10 | 24.47896 | 45.81372 | 34030 ft | 421 kts | 240° |
| 2026-04-23 21:11 | 24.44838 | 45.75918 | 34032 ft | 417 kts | 246° |
| 2026-04-23 21:11 | 24.42271 | 45.70197 | 34025 ft | 418 kts | 247° |
| 2026-04-23 21:12 | 24.39734 | 45.64458 | 34023 ft | 418 kts | 247° |
| 2026-04-23 21:12 | 24.37185 | 45.58721 | 34029 ft | 419 kts | 246° |
| 2026-04-23 21:13 | 24.34622 | 45.52977 | 34029 ft | 419 kts | 246° |
| 2026-04-23 21:13 | 24.32060 | 45.47233 | 34032 ft | 419 kts | 246° |
| 2026-04-23 21:14 | 24.29501 | 45.41497 | 34022 ft | 419 kts | 246° |
| 2026-04-23 21:14 | 24.26932 | 45.35757 | 34013 ft | 419 kts | 246° |
| 2026-04-23 21:15 | 24.24387 | 45.30069 | 34014 ft | 418 kts | 246° |
| 2026-04-23 21:15 | 24.21822 | 45.24340 | 34008 ft | 419 kts | 246° |
| 2026-04-23 21:16 | 24.19247 | 45.18610 | 34014 ft | 419 kts | 246° |
| 2026-04-23 21:16 | 24.16677 | 45.12889 | 34015 ft | 418 kts | 246° |
| 2026-04-23 21:17 | 24.14107 | 45.07174 | 34022 ft | 419 kts | 246° |
| 2026-04-23 21:17 | 24.11522 | 45.01441 | 34014 ft | 420 kts | 246° |
| 2026-04-23 21:18 | 24.08936 | 44.95716 | 34011 ft | 419 kts | 246° |
| 2026-04-23 21:18 | 24.06370 | 44.90035 | 34013 ft | 419 kts | 245° |
| 2026-04-23 21:19 | 24.03783 | 44.84313 | 34009 ft | 420 kts | 245° |
| 2026-04-23 21:19 | 24.01190 | 44.78591 | 34004 ft | 420 kts | 245° |
| 2026-04-23 21:20 | 23.98590 | 44.72859 | 34005 ft | 421 kts | 245° |
| 2026-04-23 21:20 | 23.95983 | 44.67116 | 34006 ft | 422 kts | 245° |
| 2026-04-23 21:21 | 23.93367 | 44.61365 | 34002 ft | 422 kts | 245° |
| 2026-04-23 21:21 | 23.91119 | 44.55482 | 34007 ft | 422 kts | 250° |
| 2026-04-23 21:22 | 23.89018 | 44.49497 | 34003 ft | 422 kts | 250° |
| 2026-04-23 21:22 | 23.86920 | 44.43511 | 34000 ft | 422 kts | 250° |
| 2026-04-23 21:23 | 23.84813 | 44.37537 | 34007 ft | 421 kts | 250° |
| 2026-04-23 21:23 | 23.82704 | 44.31558 | 34009 ft | 422 kts | 250° |
| 2026-04-23 21:24 | 23.80589 | 44.25568 | 34008 ft | 422 kts | 250° |
| 2026-04-23 21:24 | 23.78476 | 44.19590 | 34006 ft | 423 kts | 250° |
| 2026-04-23 21:25 | 23.76356 | 44.13608 | 34005 ft | 422 kts | 250° |
| 2026-04-23 21:25 | 23.74235 | 44.07629 | 34005 ft | 422 kts | 250° |
| 2026-04-23 21:26 | 23.72125 | 44.01687 | 34008 ft | 422 kts | 250° |
| 2026-04-23 21:26 | 23.69999 | 43.95712 | 34007 ft | 422 kts | 250° |
| 2026-04-23 21:27 | 23.67877 | 43.89752 | 34007 ft | 421 kts | 250° |
| 2026-04-23 21:27 | 23.65755 | 43.83799 | 34003 ft | 421 kts | 250° |
| 2026-04-23 21:28 | 23.63624 | 43.77835 | 34004 ft | 421 kts | 250° |
| 2026-04-23 21:28 | 23.61493 | 43.71881 | 33998 ft | 421 kts | 250° |
| 2026-04-23 21:29 | 23.59377 | 43.65971 | 33992 ft | 420 kts | 250° |
| 2026-04-23 21:29 | 23.57247 | 43.60040 | 33997 ft | 420 kts | 250° |
| 2026-04-23 21:30 | 23.55117 | 43.54104 | 33998 ft | 421 kts | 250° |
| 2026-04-23 21:30 | 23.52981 | 43.48166 | 33998 ft | 419 kts | 250° |
| 2026-04-23 21:31 | 23.50852 | 43.42257 | 34005 ft | 419 kts | 250° |
| 2026-04-23 21:31 | 23.48723 | 43.36352 | 33998 ft | 418 kts | 250° |
| 2026-04-23 21:32 | 23.46592 | 43.30449 | 33995 ft | 418 kts | 250° |
| 2026-04-23 21:32 | 23.44476 | 43.24601 | 33997 ft | 417 kts | 250° |
| 2026-04-23 21:33 | 23.42348 | 43.18721 | 34004 ft | 418 kts | 249° |
| 2026-04-23 21:33 | 23.40219 | 43.12851 | 33997 ft | 416 kts | 250° |
| 2026-04-23 21:34 | 23.38089 | 43.06996 | 33998 ft | 416 kts | 249° |
| 2026-04-23 21:34 | 23.35956 | 43.01139 | 33997 ft | 416 kts | 249° |
| 2026-04-23 21:35 | 23.33827 | 42.95293 | 33996 ft | 415 kts | 249° |
| 2026-04-23 21:35 | 23.31695 | 42.89454 | 33990 ft | 415 kts | 249° |
| 2026-04-23 21:36 | 23.28503 | 42.80717 | 33985 ft | 414 kts | 249° |
| 2026-04-23 21:37 | 23.26367 | 42.74888 | 33988 ft | 414 kts | 249° |
| 2026-04-23 21:37 | 23.24237 | 42.69082 | 33986 ft | 413 kts | 249° |
| 2026-04-23 21:38 | 23.22107 | 42.63277 | 33986 ft | 413 kts | 249° |
| 2026-04-23 21:38 | 23.19987 | 42.57513 | 33991 ft | 413 kts | 249° |
| 2026-04-23 21:39 | 23.17835 | 42.51669 | 34006 ft | 414 kts | 249° |
| 2026-04-23 21:39 | 23.15696 | 42.45863 | 34003 ft | 414 kts | 249° |
| 2026-04-23 21:40 | 23.13555 | 42.40067 | 34002 ft | 413 kts | 249° |
| 2026-04-23 21:40 | 23.11432 | 42.34303 | 34004 ft | 413 kts | 249° |
| 2026-04-23 21:41 | 23.09370 | 42.28480 | 34003 ft | 413 kts | 250° |
| 2026-04-23 21:41 | 23.07303 | 42.22646 | 34007 ft | 413 kts | 250° |
| 2026-04-23 21:42 | 23.05214 | 42.16832 | 34007 ft | 413 kts | 250° |
| 2026-04-23 21:42 | 23.03131 | 42.11012 | 34007 ft | 414 kts | 250° |
| 2026-04-23 21:43 | 23.01046 | 42.05187 | 34007 ft | 414 kts | 250° |
| 2026-04-23 21:43 | 22.98952 | 41.99355 | 34009 ft | 415 kts | 250° |
| 2026-04-23 21:44 | 22.96867 | 41.93558 | 34014 ft | 410 kts | 249° |
| 2026-04-23 21:44 | 22.94790 | 41.87785 | 34014 ft | 411 kts | 249° |
| 2026-04-23 21:45 | 22.92704 | 41.81992 | 34012 ft | 412 kts | 249° |
| 2026-04-23 21:45 | 22.90615 | 41.76198 | 34015 ft | 412 kts | 249° |
| 2026-04-23 21:46 | 22.88534 | 41.70440 | 34015 ft | 412 kts | 249° |
| 2026-04-23 21:46 | 22.86255 | 41.64726 | 34014 ft | 413 kts | 246° |
| 2026-04-23 21:47 | 22.83797 | 41.59093 | 34013 ft | 413 kts | 246° |
| 2026-04-23 21:47 | 22.81435 | 41.53407 | 34021 ft | 413 kts | 247° |
| 2026-04-23 21:48 | 22.79076 | 41.47728 | 34033 ft | 413 kts | 246° |
| 2026-04-23 21:48 | 22.76682 | 41.42054 | 34042 ft | 413 kts | 246° |
| 2026-04-23 21:49 | 22.74301 | 41.36383 | 34044 ft | 413 kts | 246° |
| 2026-04-23 21:49 | 22.71923 | 41.30716 | 34040 ft | 413 kts | 246° |
| 2026-04-23 21:50 | 22.69536 | 41.25051 | 34050 ft | 413 kts | 246° |
| 2026-04-23 21:50 | 22.67555 | 41.20350 | 34048 ft | 412 kts | 246° |
| 2026-04-23 21:51 | 22.65173 | 41.14705 | 34048 ft | 412 kts | 246° |
| 2026-04-23 21:51 | 22.62788 | 41.09056 | 34048 ft | 412 kts | 246° |
| 2026-04-23 21:52 | 22.60400 | 41.03410 | 34047 ft | 412 kts | 246° |
| 2026-04-23 21:52 | 22.58017 | 40.97783 | 34046 ft | 411 kts | 246° |
| 2026-04-23 21:53 | 22.55636 | 40.92164 | 34048 ft | 411 kts | 246° |
| 2026-04-23 21:53 | 22.53252 | 40.86549 | 34049 ft | 411 kts | 246° |
| 2026-04-23 21:54 | 22.50865 | 40.80928 | 34049 ft | 411 kts | 246° |
| 2026-04-23 21:54 | 22.48479 | 40.75317 | 34053 ft | 410 kts | 246° |
| 2026-04-23 21:55 | 22.46095 | 40.69720 | 34054 ft | 410 kts | 246° |
| 2026-04-23 21:55 | 22.43705 | 40.64115 | 34052 ft | 410 kts | 246° |
| 2026-04-23 21:56 | 22.41333 | 40.58554 | 34049 ft | 410 kts | 246° |
| 2026-04-23 21:56 | 22.38945 | 40.52965 | 34049 ft | 410 kts | 246° |
| 2026-04-23 21:57 | 22.36553 | 40.47374 | 33454 ft | 410 kts | 246° |
| 2026-04-23 21:57 | 22.35362 | 40.44594 | 32905 ft | 406 kts | 246° |
| 2026-04-23 21:57 | 22.34182 | 40.41837 | 32383 ft | 406 kts | 245° |
| 2026-04-23 21:57 | 22.32980 | 40.39034 | 31858 ft | 414 kts | 245° |
| 2026-04-23 21:58 | 22.31769 | 40.36210 | 31328 ft | 418 kts | 245° |
| 2026-04-23 21:58 | 22.30542 | 40.33349 | 30777 ft | 419 kts | 245° |
| 2026-04-23 21:58 | 22.29322 | 40.30509 | 30236 ft | 415 kts | 245° |
| 2026-04-23 21:58 | 22.28111 | 40.27691 | 29703 ft | 413 kts | 245° |
| 2026-04-23 21:59 | 22.26906 | 40.24891 | 29066 ft | 410 kts | 245° |
| 2026-04-23 21:59 | 22.25712 | 40.22113 | 28454 ft | 407 kts | 245° |
| 2026-04-23 21:59 | 22.24526 | 40.19356 | 27876 ft | 403 kts | 245° |
| 2026-04-23 22:00 | 22.22179 | 40.13907 | 26698 ft | 397 kts | 244° |
| 2026-04-23 22:00 | 22.21018 | 40.11212 | 26120 ft | 394 kts | 244° |
| 2026-04-23 22:00 | 22.19865 | 40.08539 | 25548 ft | 391 kts | 244° |
| 2026-04-23 22:00 | 22.18719 | 40.05885 | 24960 ft | 389 kts | 244° |
| 2026-04-23 22:01 | 22.17579 | 40.03246 | 24394 ft | 386 kts | 244° |
| 2026-04-23 22:01 | 22.16448 | 40.00628 | 23824 ft | 384 kts | 244° |
| 2026-04-23 22:01 | 22.15324 | 39.98026 | 23255 ft | 381 kts | 244° |
| 2026-04-23 22:01 | 22.14209 | 39.95449 | 22730 ft | 377 kts | 244° |
| 2026-04-23 22:02 | 22.13104 | 39.92895 | 22185 ft | 375 kts | 244° |
| 2026-04-23 22:02 | 22.12004 | 39.90354 | 21652 ft | 372 kts | 244° |
| 2026-04-23 22:02 | 22.10929 | 39.87872 | 21119 ft | 369 kts | 244° |
| 2026-04-23 22:02 | 22.09814 | 39.85396 | 20580 ft | 366 kts | 239° |
| 2026-04-23 22:03 | 22.08286 | 39.83221 | 20066 ft | 362 kts | 231° |
| 2026-04-23 22:03 | 22.06665 | 39.81163 | 19553 ft | 359 kts | 230° |
| 2026-04-23 22:03 | 22.04998 | 39.79160 | 18900 ft | 359 kts | 229° |
| 2026-04-23 22:03 | 22.03306 | 39.77184 | 18261 ft | 359 kts | 229° |
| 2026-04-23 22:04 | 22.01615 | 39.75201 | 17611 ft | 358 kts | 229° |
| 2026-04-23 22:04 | 21.99947 | 39.73211 | 16964 ft | 357 kts | 230° |
| 2026-04-23 22:04 | 21.98295 | 39.71219 | 16325 ft | 356 kts | 229° |
| 2026-04-23 22:04 | 21.96646 | 39.69231 | 15691 ft | 355 kts | 229° |
| 2026-04-23 22:05 | 21.94997 | 39.67254 | 15032 ft | 354 kts | 229° |
| 2026-04-23 22:05 | 21.93351 | 39.65291 | 14394 ft | 351 kts | 228° |
| 2026-04-23 22:05 | 21.91713 | 39.63341 | 13752 ft | 350 kts | 228° |
| 2026-04-23 22:05 | 21.90090 | 39.61404 | 13101 ft | 347 kts | 228° |
| 2026-04-23 22:06 | 21.88479 | 39.59478 | 12459 ft | 345 kts | 228° |
| 2026-04-23 22:06 | 21.86881 | 39.57566 | 11813 ft | 342 kts | 228° |
| 2026-04-23 22:06 | 21.85298 | 39.55676 | 11181 ft | 338 kts | 227° |
| 2026-04-23 22:06 | 21.83751 | 39.53830 | 10556 ft | 335 kts | 227° |
| 2026-04-23 22:07 | 21.82214 | 39.51995 | 10192 ft | 324 kts | 227° |
| 2026-04-23 22:07 | 21.80729 | 39.50222 | 9846 ft | 314 kts | 227° |
| 2026-04-23 22:07 | 21.79287 | 39.48505 | 9495 ft | 305 kts | 227° |
| 2026-04-23 22:07 | 21.77882 | 39.46832 | 9138 ft | 297 kts | 227° |
| 2026-04-23 22:08 | 21.76512 | 39.45201 | 8785 ft | 290 kts | 226° |
| 2026-04-23 22:08 | 21.75174 | 39.43609 | 8427 ft | 284 kts | 226° |
| 2026-04-23 22:08 | 21.73858 | 39.42041 | 8075 ft | 280 kts | 226° |
| 2026-04-23 22:08 | 21.72560 | 39.40498 | 7723 ft | 275 kts | 227° |
| 2026-04-23 22:09 | 21.71291 | 39.38989 | 7382 ft | 268 kts | 227° |
| 2026-04-23 22:09 | 21.70055 | 39.37518 | 7036 ft | 262 kts | 227° |
| 2026-04-23 22:09 | 21.68848 | 39.36077 | 6678 ft | 257 kts | 227° |
| 2026-04-23 22:09 | 21.67667 | 39.34658 | 6327 ft | 252 kts | 227° |
| 2026-04-23 22:10 | 21.66521 | 39.33277 | 5941 ft | 250 kts | 228° |
| 2026-04-23 22:10 | 21.65442 | 39.31820 | 5550 ft | 248 kts | 233° |
| 2026-04-23 22:10 | 21.64468 | 39.30301 | 5126 ft | 247 kts | 236° |
| 2026-04-23 22:10 | 21.63536 | 39.28746 | 4610 ft | 244 kts | 237° |
| 2026-04-23 22:11 | 21.62659 | 39.27232 | 4101 ft | 233 kts | 238° |
| 2026-04-23 22:11 | 21.61829 | 39.25779 | 3599 ft | 224 kts | 239° |
| 2026-04-23 22:11 | 21.61030 | 39.24375 | 3096 ft | 216 kts | 240° |
| 2026-04-23 22:11 | 21.60427 | 39.22918 | 2570 ft | 211 kts | 257° |
| 2026-04-23 22:12 | 21.60495 | 39.21403 | 2135 ft | 201 kts | 290° |
| 2026-04-23 22:12 | 21.61393 | 39.20293 | 1599 ft | 202 kts | 332° |
| 2026-04-23 22:12 | 21.62654 | 39.19719 | 1254 ft | 190 kts | 339° |
| 2026-04-23 22:12 | 21.63828 | 39.19179 | 941 ft | 176 kts | 338° |
| 2026-04-23 22:13 | 21.64926 | 39.18726 | 598 ft | 162 kts | 340° |
| 2026-04-23 22:13 | 21.65956 | 39.18327 | 236 ft | 153 kts | 340° |
| 2026-04-23 22:13 | 21.66919 | 39.17942 | 47 ft | 142 kts | 340° |
| 2026-04-23 22:13 | 21.67737 | 39.17622 | 34 ft | 102 kts | 340° |
| 2026-04-23 22:14 | 21.68222 | 39.17429 | 27 ft | 42 kts | 337° |
| 2026-04-23 22:14 | 21.68373 | 39.17270 | 24 ft | 23 kts | 307° |
| 2026-04-23 22:14 | 21.68410 | 39.17152 | 24 ft | 14 kts | 235° |
| 2026-04-23 22:14 | 21.68317 | 39.17158 | 26 ft | 15 kts | 160° |
| 2026-04-23 22:15 | 21.68212 | 39.17199 | 27 ft | 17 kts | 160° |
| 2026-04-23 22:15 | 21.68103 | 39.17242 | 31 ft | 17 kts | 160° |
| 2026-04-23 22:15 | 21.68005 | 39.17250 | 32 ft | 10 kts | 217° |
| 2026-04-23 22:15 | 21.67967 | 39.17173 | 31 ft | 13 kts | 248° |
| 2026-04-23 22:16 | 21.67933 | 39.17071 | 32 ft | 16 kts | 251° |
| 2026-04-23 22:16 | 21.67883 | 39.16929 | 31 ft | 24 kts | 249° |
| 2026-04-23 22:16 | 21.67821 | 39.16755 | 28 ft | 25 kts | 250° |
| 2026-04-23 22:16 | 21.67761 | 39.16580 | 30 ft | 25 kts | 250° |
| 2026-04-23 22:17 | 21.67707 | 39.16420 | 28 ft | 19 kts | 250° |
| 2026-04-23 22:17 | 21.67661 | 39.16282 | 28 ft | 16 kts | 251° |
| 2026-04-23 22:17 | 21.67597 | 39.16212 | 27 ft | 14 kts | 173° |
| 2026-04-23 22:17 | 21.67486 | 39.16253 | 26 ft | 20 kts | 160° |
| 2026-04-23 22:18 | 21.67345 | 39.16308 | 29 ft | 22 kts | 160° |
| 2026-04-23 22:18 | 21.67205 | 39.16362 | 32 ft | 21 kts | 160° |
| 2026-04-23 22:18 | 21.67074 | 39.16414 | 37 ft | 19 kts | 160° |
| 2026-04-23 22:18 | 21.66954 | 39.16462 | 36 ft | 17 kts | 160° |
| 2026-04-23 22:19 | 21.66890 | 39.16523 | 37 ft | 13 kts | 95° |
| 2026-04-23 22:19 | 21.66904 | 39.16623 | 37 ft | 15 kts | 88° |
| 2026-04-23 22:19 | 21.66882 | 39.16739 | 34 ft | 17 kts | 110° |
| 2026-04-23 22:19 | 21.66831 | 39.16854 | 33 ft | 16 kts | 126° |
| 2026-04-23 22:20 | 21.66751 | 39.16914 | 32 ft | 13 kts | 161° |
| 2026-04-23 22:20 | 21.66684 | 39.16940 | 31 ft | 8 kts | 141° |
| 2026-04-23 22:20 | 21.66689 | 39.16981 | 31 ft | 7 kts | 66° |
| 2026-04-23 22:20 | 21.66698 | 39.17011 | 31 ft | 0 kts | 76° |
| 2026-04-23 22:21 | 21.66699 | 39.17016 | 31 ft | 1 kts | 75° |
| 2026-04-23 22:21 | 21.66700 | 39.17019 | 32 ft | 0 kts | 75° |
| 2026-04-23 22:21 | 21.66700 | 39.17022 | 32 ft | 0 kts | 75° |
| 2026-04-23 22:21 | 21.66702 | 39.17028 | 32 ft | 0 kts | 75° |
| 2026-04-23 22:22 | 21.66703 | 39.17032 | 31 ft | 0 kts | 75° |
| 2026-04-23 22:22 | 21.66704 | 39.17034 | 32 ft | 0 kts | 75° |